createdAt,value
2022-12-23T00:01:23.293Z,24.86
2022-12-23T00:03:50.317Z,24.87
2022-12-23T00:06:18.522Z,24.85
2022-12-23T00:08:46.639Z,24.84
2022-12-23T00:11:16.266Z,24.84
2022-12-23T00:14:03.571Z,24.83
2022-12-23T00:16:30.702Z,24.80
2022-12-23T00:18:57.632Z,24.80
2022-12-23T00:21:24.551Z,24.79
2022-12-23T00:23:51.857Z,24.80
2022-12-23T00:26:21.404Z,24.80
2022-12-23T00:28:50.252Z,24.78
2022-12-23T00:31:19.034Z,24.79
2022-12-23T00:33:47.868Z,24.78
2022-12-23T00:36:18.298Z,24.78
2022-12-23T00:39:04.653Z,24.79
2022-12-23T00:41:50.377Z,24.77
2022-12-23T00:44:18.791Z,24.75
2022-12-23T00:46:45.638Z,24.75
2022-12-23T00:49:32.057Z,24.74
2022-12-23T00:51:59.389Z,24.73
2022-12-23T00:54:26.458Z,24.73
2022-12-23T00:56:53.843Z,24.73
2022-12-23T00:59:22.056Z,24.73
2022-12-23T01:02:07.479Z,24.74
2022-12-23T01:04:53.739Z,24.72
2022-12-23T01:07:22.020Z,24.72
2022-12-23T01:09:48.884Z,24.70
2022-12-23T01:12:15.901Z,24.71
2022-12-23T01:14:44.361Z,24.72
2022-12-23T01:17:11.435Z,24.73
2022-12-23T01:19:38.613Z,24.73
2022-12-23T01:22:05.589Z,24.71
2022-12-23T01:24:33.478Z,24.72
2022-12-23T01:27:00.906Z,24.72
2022-12-23T01:29:28.941Z,24.71
2022-12-23T01:31:57.438Z,24.70
2022-12-23T01:34:24.496Z,24.70
2022-12-23T01:36:51.428Z,24.71
2022-12-23T01:39:18.581Z,24.71
2022-12-23T01:42:04.025Z,24.70
2022-12-23T01:44:53.745Z,24.68
2022-12-23T01:47:43.310Z,24.68
2022-12-23T01:50:15.011Z,24.69
2022-12-23T01:52:46.077Z,24.68
2022-12-23T01:55:16.199Z,24.68
2022-12-23T01:57:44.524Z,24.68
2022-12-23T02:00:31.946Z,24.70
2022-12-23T02:03:19.225Z,24.66
2022-12-23T02:05:47.046Z,24.65
2022-12-23T02:08:34.266Z,24.66
2022-12-23T02:11:23.807Z,24.64
2022-12-23T02:14:22.729Z,24.65
2022-12-23T02:16:56.234Z,24.63
2022-12-23T02:19:47.288Z,24.64
2022-12-23T02:22:33.319Z,24.63
2022-12-23T02:25:27.851Z,24.63
2022-12-23T02:28:10.045Z,24.64
2022-12-23T02:30:45.089Z,24.63
2022-12-23T02:33:36.823Z,24.63
2022-12-23T02:36:14.200Z,24.61
2022-12-23T02:38:49.483Z,24.62
2022-12-23T02:41:23.036Z,24.63
2022-12-23T02:44:00.279Z,24.63
2022-12-23T02:46:33.945Z,24.63
2022-12-23T02:49:07.202Z,24.64
2022-12-23T02:51:37.958Z,24.64
2022-12-23T02:54:08.950Z,24.64
2022-12-23T02:56:39.687Z,24.63
2022-12-23T02:59:10.476Z,24.65
2022-12-23T03:01:40.107Z,24.63
2022-12-23T03:04:07.208Z,24.62
2022-12-23T03:06:39.458Z,24.63
2022-12-23T03:09:07.224Z,24.62
2022-12-23T03:11:45.788Z,24.63
2022-12-23T03:14:43.432Z,24.63
2022-12-23T03:17:25.608Z,24.63
2022-12-23T03:19:58.950Z,24.61
2022-12-23T03:22:35.651Z,24.63
2022-12-23T03:25:08.826Z,24.63
2022-12-23T03:27:40.937Z,24.60
2022-12-23T03:30:10.855Z,24.60
2022-12-23T03:32:45.786Z,24.59
2022-12-23T03:35:16.504Z,24.61
2022-12-23T03:37:48.841Z,24.61
2022-12-23T03:40:21.957Z,24.61
2022-12-23T03:42:55.098Z,24.60
2022-12-23T03:45:38.484Z,24.60
2022-12-23T03:48:14.903Z,24.60
2022-12-23T03:50:43.390Z,24.61
2022-12-23T03:53:15.261Z,24.61
2022-12-23T03:55:46.986Z,24.60
2022-12-23T03:58:24.202Z,24.60
2022-12-23T04:00:57.684Z,24.60
2022-12-23T04:03:34.744Z,24.59
2022-12-23T04:06:05.801Z,24.60
2022-12-23T04:08:36.450Z,24.61
2022-12-23T04:11:04.360Z,24.59
2022-12-23T04:13:31.974Z,24.59
2022-12-23T04:15:59.263Z,24.59
2022-12-23T04:18:27.874Z,24.60
2022-12-23T04:20:54.914Z,24.58
2022-12-23T04:23:21.813Z,24.59
2022-12-23T04:25:48.667Z,24.58
2022-12-23T04:28:15.625Z,24.57
2022-12-23T04:30:42.622Z,24.58
2022-12-23T04:33:11.439Z,24.60
2022-12-23T04:35:39.883Z,24.60
2022-12-23T04:38:06.764Z,24.60
2022-12-23T04:40:33.956Z,24.60
2022-12-23T04:43:00.861Z,24.58
2022-12-23T04:45:27.851Z,24.58
2022-12-23T04:47:55.438Z,24.58
2022-12-23T04:50:22.392Z,24.59
2022-12-23T04:52:50.670Z,24.58
2022-12-23T04:55:17.656Z,24.58
2022-12-23T04:57:44.525Z,24.58
2022-12-23T05:00:12.378Z,24.56
2022-12-23T05:02:39.303Z,24.56
2022-12-23T05:05:06.764Z,24.55
2022-12-23T05:07:33.712Z,24.55
2022-12-23T05:10:02.437Z,24.55
2022-12-23T05:12:29.897Z,24.54
2022-12-23T05:14:56.943Z,24.55
2022-12-23T05:17:23.904Z,24.55
2022-12-23T05:19:50.819Z,24.56
2022-12-23T05:22:17.743Z,24.56
2022-12-23T05:24:44.763Z,24.56
2022-12-23T05:27:13.063Z,24.56
2022-12-23T05:29:39.980Z,24.54
2022-12-23T05:32:06.964Z,24.55
2022-12-23T05:34:34.048Z,24.53
2022-12-23T05:37:00.985Z,24.53
2022-12-23T05:39:27.847Z,24.54
2022-12-23T05:41:54.707Z,24.54
2022-12-23T05:44:22.996Z,24.52
2022-12-23T05:46:49.972Z,24.52
2022-12-23T05:49:16.923Z,24.56
2022-12-23T05:51:43.888Z,24.61
2022-12-23T05:54:10.763Z,24.65
2022-12-23T05:56:37.684Z,24.68
2022-12-23T05:59:04.564Z,24.73
2022-12-23T06:01:32.874Z,24.76
2022-12-23T06:03:59.961Z,24.83
2022-12-23T06:06:27.024Z,24.88
2022-12-23T06:08:59.407Z,24.95
2022-12-23T06:11:27.239Z,25.01
2022-12-23T06:13:54.317Z,25.05
2022-12-23T06:16:21.313Z,25.10
2022-12-23T06:18:49.604Z,25.16
2022-12-23T06:21:16.450Z,25.22
2022-12-23T06:23:43.303Z,25.27
2022-12-23T06:26:10.177Z,25.32
2022-12-23T06:28:37.072Z,25.39
2022-12-23T06:31:04.079Z,25.44
2022-12-23T06:33:30.978Z,25.50
2022-12-23T06:35:59.330Z,25.54
2022-12-23T06:38:26.219Z,25.57
2022-12-23T06:40:53.222Z,25.58
2022-12-23T06:43:20.178Z,25.58
2022-12-23T06:45:47.713Z,25.59
2022-12-23T06:48:14.744Z,25.58
2022-12-23T06:50:41.773Z,25.57
2022-12-23T06:53:11.111Z,25.56
2022-12-23T06:55:38.114Z,25.57
2022-12-23T06:58:05.133Z,25.57
2022-12-23T07:00:32.624Z,25.54
2022-12-23T07:02:59.798Z,25.54
2022-12-23T07:05:28.557Z,25.52
2022-12-23T07:08:00.292Z,25.55
2022-12-23T07:10:28.518Z,25.54
2022-12-23T07:12:55.413Z,25.54
2022-12-23T07:15:22.254Z,25.55
2022-12-23T07:17:49.209Z,25.52
2022-12-23T07:20:16.859Z,25.54
2022-12-23T07:22:43.803Z,25.56
2022-12-23T07:25:10.637Z,25.57
2022-12-23T07:27:39.056Z,25.57
2022-12-23T07:30:07.309Z,25.55
2022-12-23T07:32:34.178Z,25.55
2022-12-23T07:35:01.044Z,25.52
2022-12-23T07:37:27.970Z,25.51
2022-12-23T07:39:54.806Z,25.49
2022-12-23T07:45:11.123Z,25.42
2022-12-23T07:47:37.976Z,25.39
2022-12-23T07:50:06.177Z,25.39
2022-12-23T07:52:33.058Z,25.37
2022-12-23T07:54:59.925Z,25.35
2022-12-23T07:57:27.114Z,25.35
2022-12-23T07:59:53.988Z,25.33
2022-12-23T08:02:25.106Z,25.30
2022-12-23T08:04:52.485Z,25.29
2022-12-23T08:07:19.356Z,25.28
2022-12-23T08:09:46.363Z,25.24
2022-12-23T08:12:13.388Z,25.21
2022-12-23T08:14:40.342Z,25.21
2022-12-23T08:17:07.246Z,25.20
2022-12-23T08:19:35.568Z,25.20
2022-12-23T08:22:02.415Z,25.17
2022-12-23T08:24:29.314Z,25.17
2022-12-23T08:26:56.186Z,25.14
2022-12-23T08:29:23.079Z,25.12
2022-12-23T08:31:50.557Z,25.10
2022-12-23T08:34:19.398Z,25.09
2022-12-23T08:36:47.821Z,25.09
2022-12-23T08:39:15.293Z,25.08
2022-12-23T08:41:44.920Z,25.08
2022-12-23T08:44:12.558Z,25.07
2022-12-23T08:46:39.872Z,25.07
2022-12-23T08:49:07.583Z,25.06
2022-12-23T08:51:35.920Z,25.03
2022-12-23T08:54:05.219Z,25.03
2022-12-23T08:56:34.694Z,25.02
2022-12-23T08:59:02.547Z,25.02
2022-12-23T09:01:32.653Z,25.01
2022-12-23T09:04:02.787Z,24.98
2022-12-23T09:06:33.663Z,25.01
2022-12-23T09:09:00.540Z,24.99
2022-12-23T09:11:29.927Z,24.99
2022-12-23T09:13:59.268Z,24.99
2022-12-23T09:16:26.586Z,24.96
2022-12-23T09:18:53.620Z,24.96
2022-12-23T09:21:23.068Z,24.96
2022-12-23T09:23:50.832Z,24.95
2022-12-23T09:26:20.045Z,24.94
2022-12-23T09:28:48.723Z,24.93
2022-12-23T09:31:15.801Z,24.93
2022-12-23T09:33:46.044Z,24.92
2022-12-23T09:36:13.049Z,24.93
2022-12-23T09:38:39.974Z,24.93
2022-12-23T09:41:23.012Z,24.91
2022-12-23T09:44:05.025Z,24.90
2022-12-23T09:46:36.185Z,24.88
2022-12-23T09:49:08.611Z,24.91
2022-12-23T09:51:35.557Z,24.90
2022-12-23T09:54:16.423Z,24.91
2022-12-23T09:56:48.111Z,24.89
2022-12-23T09:59:27.828Z,24.85
2022-12-23T10:02:00.881Z,24.84
2022-12-23T10:04:43.567Z,24.84
2022-12-23T10:07:22.904Z,24.83
2022-12-23T10:09:53.129Z,24.83
2022-12-23T10:12:34.419Z,24.84
2022-12-23T10:15:16.995Z,24.83
2022-12-23T10:17:45.044Z,24.82
2022-12-23T10:20:18.550Z,24.83
2022-12-23T10:22:47.342Z,24.82
2022-12-23T10:25:22.972Z,24.81
2022-12-23T10:27:49.840Z,24.79
2022-12-23T10:30:51.558Z,24.80
2022-12-23T10:33:17.307Z,24.80
2022-12-23T10:35:53.028Z,24.79
2022-12-23T10:38:40.988Z,24.80
2022-12-23T10:41:16.900Z,24.78
2022-12-23T10:44:00.246Z,24.76
2022-12-23T10:46:37.676Z,24.76
2022-12-23T10:49:17.970Z,24.77
2022-12-23T10:51:49.206Z,24.78
2022-12-23T10:54:20.726Z,24.78
2022-12-23T10:56:47.978Z,24.76
2022-12-23T10:59:17.735Z,24.76
2022-12-23T11:01:52.793Z,24.76
2022-12-23T11:04:29.251Z,24.75
2022-12-23T11:07:26.405Z,24.74
2022-12-23T11:09:48.146Z,24.75
2022-12-23T11:12:15.528Z,24.77
2022-12-23T11:14:50.613Z,24.75
2022-12-23T11:17:25.289Z,24.73
2022-12-23T11:20:13.256Z,24.73
2022-12-23T11:22:48.450Z,24.73
2022-12-23T11:25:27.683Z,24.73
2022-12-23T11:27:58.091Z,24.72
2022-12-23T11:30:25.316Z,24.73
2022-12-23T11:32:53.825Z,24.73
2022-12-23T11:35:25.957Z,24.73
2022-12-23T11:37:53.523Z,24.72
2022-12-23T11:40:24.550Z,24.72
2022-12-23T11:42:57.556Z,24.73
2022-12-23T11:45:26.827Z,24.73
2022-12-23T11:47:56.257Z,24.72
2022-12-23T11:50:29.053Z,24.72
2022-12-23T11:53:03.745Z,24.71
2022-12-23T11:55:34.710Z,24.69
2022-12-23T11:58:02.658Z,24.70
2022-12-23T12:00:42.738Z,24.71
2022-12-23T12:03:18.567Z,24.70
2022-12-23T12:05:49.763Z,24.70
2022-12-23T12:08:22.347Z,24.71
2022-12-23T12:10:52.994Z,24.71
2022-12-23T12:13:25.951Z,24.71
2022-12-23T12:16:01.082Z,24.68
2022-12-23T12:18:29.849Z,24.70
2022-12-23T12:21:00.789Z,24.70
2022-12-23T12:23:41.336Z,24.70
2022-12-23T12:26:15.823Z,24.69
2022-12-23T12:28:45.184Z,24.68
2022-12-23T12:31:20.364Z,24.68
2022-12-23T12:33:53.561Z,24.68
2022-12-23T12:36:32.686Z,24.68
2022-12-23T12:39:00.352Z,24.69
2022-12-23T12:41:33.196Z,24.67
2022-12-23T12:44:07.818Z,24.68
2022-12-23T12:46:41.177Z,24.67
2022-12-23T12:49:20.502Z,24.67
2022-12-23T12:51:52.963Z,24.68
2022-12-23T12:54:26.968Z,24.67
2022-12-23T12:56:56.508Z,24.67
2022-12-23T12:59:27.558Z,24.66
2022-12-23T13:02:18.641Z,24.66
2022-12-23T13:05:08.268Z,24.64
2022-12-23T13:07:45.823Z,24.66
2022-12-23T13:10:18.265Z,24.66
2022-12-23T13:12:57.093Z,24.67
2022-12-23T13:15:30.428Z,24.66
2022-12-23T13:18:16.299Z,24.64
2022-12-23T13:20:50.545Z,24.64
2022-12-23T13:23:43.069Z,24.64
2022-12-23T13:26:18.622Z,24.65
2022-12-23T13:28:55.580Z,24.65
2022-12-23T13:31:35.782Z,24.65
2022-12-23T13:34:14.248Z,24.66
2022-12-23T13:36:50.483Z,24.66
2022-12-23T13:39:32.016Z,24.66
2022-12-23T13:42:05.992Z,24.65
2022-12-23T13:44:34.655Z,24.63
2022-12-23T13:47:11.601Z,24.63
2022-12-23T13:49:54.049Z,24.64
2022-12-23T13:52:35.228Z,24.63
2022-12-23T13:55:15.832Z,24.62
2022-12-23T13:57:54.879Z,24.61
2022-12-23T14:00:28.643Z,24.63
2022-12-23T14:03:18.441Z,24.64
2022-12-23T14:05:47.132Z,24.62
2022-12-23T14:08:33.432Z,24.61
2022-12-23T14:11:04.080Z,24.61
2022-12-23T14:13:37.989Z,24.62
2022-12-23T14:16:29.985Z,24.62
2022-12-23T14:19:24.101Z,24.62
2022-12-23T14:22:01.347Z,24.61
2022-12-23T14:25:10.751Z,24.60
2022-12-23T14:27:51.172Z,24.60
2022-12-23T14:30:23.717Z,24.59
2022-12-23T14:32:53.347Z,24.59
2022-12-23T14:35:26.621Z,24.59
2022-12-23T14:38:25.202Z,24.59
2022-12-23T14:41:18.034Z,24.57
2022-12-23T14:43:55.883Z,24.56
2022-12-23T14:46:57.282Z,24.56
2022-12-23T14:49:41.030Z,24.58
2022-12-23T14:52:44.052Z,24.56
2022-12-23T14:55:39.984Z,24.57
2022-12-23T14:58:21.375Z,24.55
2022-12-23T15:00:50.976Z,24.55
2022-12-23T15:03:20.125Z,24.57
2022-12-23T15:05:47.517Z,24.56
2022-12-23T15:08:29.998Z,24.60
2022-12-23T15:10:57.680Z,24.70
2022-12-23T15:13:29.296Z,24.74
2022-12-23T15:16:01.457Z,24.76
2022-12-23T15:18:29.258Z,24.80
2022-12-23T15:21:01.538Z,24.82
2022-12-23T15:23:28.945Z,24.87
2022-12-23T15:25:59.040Z,24.87
2022-12-23T15:28:35.404Z,24.90
2022-12-23T15:31:02.495Z,24.93
2022-12-23T15:36:30.705Z,24.98
2022-12-23T15:39:00.441Z,24.95
2022-12-23T15:41:27.902Z,25.00
2022-12-23T15:43:59.248Z,25.04
2022-12-23T15:46:30.260Z,25.05
2022-12-23T15:48:58.321Z,25.02
2022-12-23T15:51:58.335Z,25.08
2022-12-23T15:54:24.040Z,25.10
2022-12-23T15:56:53.571Z,25.11
2022-12-23T15:59:25.003Z,25.10
2022-12-23T16:01:52.253Z,25.12
2022-12-23T16:04:26.636Z,25.10
2022-12-23T16:06:54.663Z,25.11
2022-12-23T16:09:34.050Z,25.13
2022-12-23T16:12:04.054Z,25.13
2022-12-23T16:14:37.964Z,25.12
2022-12-23T16:17:23.960Z,25.13
2022-12-23T16:19:52.776Z,25.12
2022-12-23T16:22:25.503Z,25.11
2022-12-23T16:24:58.305Z,25.12
2022-12-23T16:27:33.369Z,25.12
2022-12-23T16:30:04.352Z,25.11
2022-12-23T16:32:31.393Z,25.11
2022-12-23T16:35:10.367Z,25.13
2022-12-23T16:37:37.247Z,25.12
2022-12-23T16:40:13.099Z,25.13
2022-12-23T16:42:40.005Z,25.11
2022-12-23T16:45:12.319Z,25.09
2022-12-23T16:47:39.306Z,25.09
2022-12-23T16:50:08.954Z,25.10
2022-12-23T16:52:35.831Z,25.10
2022-12-23T16:55:02.751Z,25.09
2022-12-23T16:57:29.638Z,25.12
2022-12-23T16:59:56.573Z,25.16
2022-12-23T17:02:28.655Z,25.16
2022-12-23T17:04:55.637Z,25.14
2022-12-23T17:07:24.430Z,25.14
2022-12-23T17:09:51.345Z,25.14
2022-12-23T17:12:18.607Z,25.11
2022-12-23T17:14:45.503Z,25.10
2022-12-23T17:17:15.479Z,25.09
2022-12-23T17:19:43.895Z,25.09
2022-12-23T17:22:12.973Z,25.09
2022-12-23T17:24:40.259Z,25.09
2022-12-23T17:27:13.300Z,25.08
2022-12-23T17:29:40.375Z,25.08
2022-12-23T17:32:11.331Z,25.09
2022-12-23T17:34:38.279Z,25.12
2022-12-23T17:37:13.730Z,25.06
2022-12-23T17:39:42.425Z,25.08
2022-12-23T17:42:17.759Z,25.06
2022-12-23T17:44:49.434Z,25.11
2022-12-23T17:47:18.195Z,25.07
2022-12-23T17:49:45.962Z,25.08
2022-12-23T17:52:15.763Z,25.09
2022-12-23T17:54:42.771Z,25.11
2022-12-23T17:57:18.165Z,25.09
2022-12-23T17:59:47.798Z,25.10
2022-12-23T18:02:26.014Z,25.09
2022-12-23T18:04:53.242Z,25.10
2022-12-23T18:07:21.612Z,25.09
2022-12-23T18:09:49.282Z,25.10
2022-12-23T18:12:25.366Z,25.11
2022-12-23T18:14:52.605Z,25.11
2022-12-23T18:17:19.557Z,25.09
2022-12-23T18:19:46.573Z,25.05
2022-12-23T18:22:17.805Z,25.08
2022-12-23T18:24:47.558Z,25.12
2022-12-23T18:27:15.579Z,25.12
2022-12-23T18:29:42.899Z,25.10
2022-12-23T18:32:19.821Z,25.10
2022-12-23T18:34:47.007Z,25.09
2022-12-23T18:37:13.983Z,25.10
2022-12-23T18:39:41.079Z,25.09
2022-12-23T18:42:12.023Z,25.10
2022-12-23T18:44:39.159Z,25.10
2022-12-23T18:47:06.016Z,25.11
2022-12-23T18:49:34.886Z,25.11
2022-12-23T18:52:01.918Z,25.08
2022-12-23T18:54:29.091Z,25.06
2022-12-23T18:56:59.774Z,25.06
2022-12-23T18:59:30.162Z,25.00
2022-12-23T19:01:57.660Z,25.01
2022-12-23T19:04:24.946Z,25.03
2022-12-23T19:06:52.036Z,25.04
2022-12-23T19:09:21.405Z,25.04
2022-12-23T19:11:50.690Z,25.02
2022-12-23T19:14:17.583Z,24.99
2022-12-23T19:16:51.195Z,25.02
2022-12-23T19:19:18.900Z,25.03
2022-12-23T19:21:45.915Z,25.01
2022-12-23T19:24:12.816Z,24.99
2022-12-23T19:26:39.764Z,24.98
2022-12-23T19:29:06.617Z,24.97
2022-12-23T19:31:34.295Z,24.98
2022-12-23T19:34:02.669Z,24.98
2022-12-23T19:36:29.798Z,24.98
2022-12-23T19:38:57.309Z,24.96
2022-12-23T19:41:24.366Z,24.95
2022-12-23T19:43:51.345Z,24.94
2022-12-23T19:46:18.851Z,24.93
2022-12-23T19:48:51.544Z,24.91
2022-12-23T19:51:20.216Z,24.91
2022-12-23T19:53:50.265Z,24.89
2022-12-23T19:56:22.588Z,24.87
2022-12-23T19:58:50.033Z,24.85
2022-12-23T20:01:19.294Z,24.85
2022-12-23T20:03:47.979Z,24.84
2022-12-23T20:06:17.835Z,24.86
2022-12-23T20:08:47.129Z,24.85
2022-12-23T20:11:16.236Z,24.91
2022-12-23T20:13:43.824Z,24.83
2022-12-23T20:16:11.910Z,24.83
2022-12-23T20:18:39.047Z,24.81
2022-12-23T20:21:07.058Z,24.80
2022-12-23T20:23:35.034Z,24.80
2022-12-23T20:26:04.345Z,24.76
2022-12-23T20:28:31.306Z,24.79
2022-12-23T20:31:07.714Z,24.76
2022-12-23T20:33:35.022Z,24.76
2022-12-23T20:36:02.060Z,24.76
2022-12-23T20:38:29.125Z,24.75
2022-12-23T20:40:56.129Z,24.75
2022-12-23T20:43:24.661Z,24.73
2022-12-23T20:45:52.341Z,24.74
2022-12-23T20:48:21.138Z,24.74
2022-12-23T20:50:48.613Z,24.74
2022-12-23T20:53:15.555Z,24.73
2022-12-23T20:55:42.432Z,24.72
2022-12-23T20:58:27.955Z,24.66
2022-12-23T21:01:07.597Z,24.63
2022-12-23T21:03:34.656Z,24.61
2022-12-23T21:06:01.559Z,24.61
2022-12-23T21:08:28.454Z,24.62
2022-12-23T21:10:55.859Z,24.64
2022-12-23T21:13:22.814Z,24.60
2022-12-23T21:15:49.957Z,24.61
2022-12-23T21:18:18.751Z,24.59
2022-12-23T21:20:45.718Z,24.60
2022-12-23T21:23:12.566Z,24.60
2022-12-23T21:25:39.507Z,24.58
2022-12-23T21:28:06.414Z,24.62
2022-12-23T21:30:33.723Z,24.66
2022-12-23T21:33:02.504Z,24.65
2022-12-23T21:35:30.781Z,24.64
2022-12-23T21:37:57.621Z,24.62
2022-12-23T21:40:26.485Z,24.58
2022-12-23T21:42:53.396Z,24.61
2022-12-23T21:45:20.327Z,24.64
2022-12-23T21:47:47.201Z,24.65
2022-12-23T21:50:14.152Z,24.65
2022-12-23T21:52:42.415Z,24.65
2022-12-23T21:55:09.525Z,24.65
2022-12-23T21:57:36.367Z,24.63
2022-12-23T22:00:03.462Z,24.64
2022-12-23T22:02:31.485Z,24.64
2022-12-23T22:04:58.503Z,24.63
2022-12-23T22:07:27.144Z,24.63
2022-12-23T22:09:55.418Z,24.63
2022-12-23T22:12:22.275Z,24.63
2022-12-23T22:14:49.162Z,24.63
2022-12-23T22:17:16.075Z,24.65
2022-12-23T22:19:42.956Z,24.62
2022-12-23T22:22:09.881Z,24.61
2022-12-23T22:24:36.815Z,24.61
2022-12-23T22:27:05.055Z,24.61
2022-12-23T22:29:31.977Z,24.60
2022-12-23T22:31:58.870Z,24.62
2022-12-23T22:34:25.869Z,24.61
2022-12-23T22:36:52.909Z,24.61
2022-12-23T22:39:21.835Z,24.61
2022-12-23T22:41:50.150Z,24.61
2022-12-23T22:44:19.107Z,24.63
2022-12-23T22:46:46.280Z,24.62
2022-12-23T22:49:14.615Z,24.62
2022-12-23T22:51:42.768Z,24.60
2022-12-23T22:54:10.176Z,24.58
2022-12-23T22:56:37.605Z,24.58
2022-12-23T22:59:04.945Z,24.60
2022-12-23T23:01:36.133Z,24.59
2022-12-23T23:04:04.530Z,24.60
2022-12-23T23:06:33.677Z,24.59
2022-12-23T23:09:01.377Z,24.59
2022-12-23T23:11:28.778Z,24.60
2022-12-23T23:13:59.201Z,24.59
2022-12-23T23:16:28.603Z,24.60
2022-12-23T23:18:58.715Z,24.60
2022-12-23T23:21:27.282Z,24.58
2022-12-23T23:23:54.141Z,24.59
2022-12-23T23:26:21.405Z,24.61
2022-12-23T23:28:48.604Z,24.60
2022-12-23T23:34:03.950Z,24.59
2022-12-23T23:36:30.911Z,24.59
2022-12-23T23:39:00.334Z,24.59
2022-12-23T23:41:27.233Z,24.58
2022-12-23T23:43:54.157Z,24.59
2022-12-23T23:46:21.235Z,24.58
2022-12-23T23:48:48.259Z,24.59
2022-12-23T23:51:16.689Z,24.58
2022-12-23T23:53:43.561Z,24.57
2022-12-23T23:56:10.833Z,24.66
2022-12-23T23:58:37.798Z,24.61
